Terminal Aerodrome Forecast
Issued by NWS

Home | Current Version | Previous Version | Text Only | Print | Product List | Glossary On
Versions: 1 2 3 4 5 6 7 8 9 10 11 12 13 14 15
000
FTUS46 KLOX 010800 AAA
TAFSBA
TAF AMD
KSBA 010834Z 0109/0206 VRB03KT 6SM -TSRA SCT025CB BKN035
     FM010930 VRB03KT 6SM -SHRA SCT015 BKN035
     FM011400 VRB03KT P6SM VCSH SCT025 OVC040
     FM012000 22007KT P6SM VCSH SCT030 BKN050
      TEMPO 0120/0124 6SM -SHRA BKN025
     FM020200 VRB03KT P6SM VCSH SCT025 BKN040=

USA.gov is the U.S. government's official web portal to all federal, state and local government web resources and services.